createdAt,value
2019-05-15T00:00:49.195Z,11.25
2019-05-15T00:01:49.214Z,16.88
2019-05-15T00:02:49.233Z,16.88
2019-05-15T00:03:49.470Z,16.88
2019-05-15T00:04:49.355Z,16.88
2019-05-15T00:05:49.758Z,16.88
2019-05-15T00:06:49.315Z,16.88
2019-05-15T00:07:49.332Z,22.50
2019-05-15T00:08:49.354Z,22.50
2019-05-15T00:09:49.382Z,16.88
2019-05-15T00:10:49.391Z,16.88
2019-05-15T00:11:49.411Z,22.50
2019-05-15T00:12:49.432Z,22.50
2019-05-15T00:13:49.448Z,22.50
2019-05-15T00:14:49.471Z,22.50
2019-05-15T00:15:49.489Z,22.50
2019-05-15T00:16:49.511Z,22.50
2019-05-15T00:17:49.535Z,22.50
2019-05-15T00:18:49.549Z,28.13
2019-05-15T00:19:49.574Z,28.13
2019-05-15T00:20:49.919Z,22.50
2019-05-15T00:21:49.608Z,22.50
2019-05-15T00:22:49.631Z,28.13
2019-05-15T00:23:49.650Z,28.13
2019-05-15T00:24:49.673Z,28.13
2019-05-15T00:25:49.690Z,22.50
2019-05-15T00:26:49.708Z,22.50
2019-05-15T00:27:49.739Z,22.50
2019-05-15T00:28:49.754Z,16.88
2019-05-15T00:29:49.776Z,16.88
2019-05-15T00:30:49.792Z,16.88
2019-05-15T00:31:49.812Z,16.88
2019-05-15T00:32:49.836Z,16.88
2019-05-15T00:33:49.853Z,16.88
2019-05-15T00:34:49.875Z,16.88
2019-05-15T00:35:49.891Z,16.88
2019-05-15T00:36:49.912Z,16.88
2019-05-15T00:37:49.952Z,16.88
2019-05-15T00:38:49.951Z,16.88
2019-05-15T00:39:49.971Z,16.88
2019-05-15T00:40:49.990Z,22.50
2019-05-15T00:41:54.283Z,22.50
2019-05-15T00:42:50.036Z,22.50
2019-05-15T00:43:50.055Z,22.50
2019-05-15T00:44:50.072Z,22.50
2019-05-15T00:45:50.090Z,22.50
2019-05-15T00:46:50.117Z,22.50
2019-05-15T00:47:50.133Z,22.50
2019-05-15T00:48:50.159Z,16.88
2019-05-15T00:49:50.173Z,16.88
2019-05-15T00:50:50.194Z,16.88
2019-05-15T00:51:50.213Z,16.88
2019-05-15T00:52:50.232Z,16.88
2019-05-15T00:53:50.253Z,16.88
2019-05-15T00:54:50.276Z,22.50
2019-05-15T00:55:50.294Z,22.50
2019-05-15T00:56:50.318Z,22.50
2019-05-15T00:57:50.334Z,22.50
2019-05-15T00:58:50.354Z,16.88
2019-05-15T00:59:50.377Z,16.88
2019-05-15T01:00:50.396Z,16.88
2019-05-15T01:01:50.423Z,22.50
2019-05-15T01:02:50.436Z,22.50
2019-05-15T01:03:50.483Z,22.50
2019-05-15T01:04:50.511Z,22.50
2019-05-15T01:05:50.526Z,22.50
2019-05-15T01:06:52.679Z,16.88
2019-05-15T01:07:50.583Z,16.88
2019-05-15T01:08:50.591Z,22.50
2019-05-15T01:09:50.641Z,22.50
2019-05-15T01:10:50.640Z,22.50
2019-05-15T01:11:50.652Z,16.88
2019-05-15T01:12:50.672Z,22.50
2019-05-15T01:13:50.692Z,22.50
2019-05-15T01:14:50.713Z,22.50
2019-05-15T01:15:50.729Z,22.50
2019-05-15T01:16:50.757Z,22.50
2019-05-15T01:17:50.772Z,22.50
2019-05-15T01:18:50.791Z,22.50
2019-05-15T01:19:50.805Z,22.50
2019-05-15T01:20:50.829Z,22.50
2019-05-15T01:21:50.851Z,22.50
2019-05-15T01:22:50.843Z,22.50
2019-05-15T01:23:50.865Z,22.50
2019-05-15T01:24:50.884Z,22.50
2019-05-15T01:25:50.908Z,22.50
2019-05-15T01:26:50.943Z,22.50
2019-05-15T01:27:50.957Z,22.50
2019-05-15T01:28:50.968Z,22.50
2019-05-15T01:29:50.993Z,22.50
2019-05-15T01:30:51.009Z,22.50
2019-05-15T01:31:51.029Z,22.50
2019-05-15T01:32:51.050Z,22.50
2019-05-15T01:33:51.071Z,22.50
2019-05-15T01:34:51.105Z,22.50
2019-05-15T01:35:51.114Z,22.50
2019-05-15T01:36:51.142Z,22.50
2019-05-15T01:37:51.155Z,22.50
2019-05-15T01:38:51.171Z,22.50
2019-05-15T01:39:51.194Z,22.50
2019-05-15T01:40:51.212Z,22.50
2019-05-15T01:41:51.236Z,22.50
2019-05-15T01:42:51.254Z,22.50
2019-05-15T01:43:51.283Z,22.50
2019-05-15T01:44:51.298Z,22.50
2019-05-15T01:45:51.320Z,22.50
2019-05-15T01:46:51.340Z,22.50
2019-05-15T01:47:51.360Z,22.50
2019-05-15T01:48:51.378Z,28.13
2019-05-15T01:49:51.403Z,28.13
2019-05-15T01:50:51.423Z,22.50
2019-05-15T01:51:51.442Z,22.50
2019-05-15T01:52:52.378Z,22.50
2019-05-15T01:53:51.480Z,28.13
2019-05-15T01:54:51.502Z,28.13
2019-05-15T01:55:51.524Z,22.50
2019-05-15T01:56:51.547Z,22.50
2019-05-15T01:57:52.053Z,22.50
2019-05-15T01:58:51.587Z,22.50
2019-05-15T01:59:57.208Z,22.50
2019-05-15T02:00:51.628Z,16.88
2019-05-15T02:01:51.648Z,22.50
2019-05-15T02:02:51.951Z,22.50
2019-05-15T02:03:51.692Z,22.50
2019-05-15T02:04:51.713Z,22.50
2019-05-15T02:05:51.734Z,22.50
2019-05-15T02:06:51.777Z,22.50
2019-05-15T02:07:51.779Z,22.50
2019-05-15T02:08:51.796Z,22.50
2019-05-15T02:09:51.816Z,22.50
2019-05-15T02:10:51.839Z,22.50
2019-05-15T02:11:51.870Z,22.50
2019-05-15T02:12:51.878Z,22.50
2019-05-15T02:13:51.900Z,22.50
2019-05-15T02:14:51.923Z,22.50
2019-05-15T02:15:51.942Z,22.50
2019-05-15T02:16:51.965Z,28.13
2019-05-15T02:17:51.985Z,28.13
2019-05-15T02:18:52.019Z,22.50
2019-05-15T02:19:52.025Z,28.13
2019-05-15T02:20:52.065Z,28.13
2019-05-15T02:21:52.070Z,28.13
2019-05-15T02:22:52.092Z,28.13
2019-05-15T02:23:52.110Z,28.13
2019-05-15T02:24:52.131Z,28.13
2019-05-15T02:25:52.155Z,28.13
2019-05-15T02:26:52.173Z,28.13
2019-05-15T02:27:52.196Z,28.13
2019-05-15T02:28:52.809Z,28.13
2019-05-15T02:29:52.267Z,28.13
2019-05-15T02:30:52.263Z,28.13
2019-05-15T02:31:52.277Z,28.13
2019-05-15T02:32:52.304Z,28.13
2019-05-15T02:33:52.329Z,28.13
2019-05-15T02:34:52.356Z,28.13
2019-05-15T02:35:52.370Z,28.13
2019-05-15T02:36:52.390Z,28.13
2019-05-15T02:37:52.403Z,28.13
2019-05-15T02:38:52.427Z,28.13
2019-05-15T02:39:52.451Z,28.13
2019-05-15T02:40:59.158Z,28.13
2019-05-15T02:41:52.499Z,28.13
2019-05-15T02:42:53.829Z,28.13
2019-05-15T02:43:53.057Z,28.13
2019-05-15T02:44:52.673Z,28.13
2019-05-15T02:45:52.624Z,28.13
2019-05-15T02:46:52.599Z,28.13
2019-05-15T02:47:52.617Z,28.13
2019-05-15T02:48:52.653Z,28.13
2019-05-15T02:49:52.661Z,28.13
2019-05-15T02:50:52.697Z,28.13
2019-05-15T02:51:52.702Z,28.13
2019-05-15T02:52:52.726Z,28.13
2019-05-15T02:53:52.748Z,28.13
2019-05-15T02:54:52.766Z,28.13
2019-05-15T02:55:52.791Z,28.13
2019-05-15T02:56:52.810Z,28.13
2019-05-15T02:57:52.831Z,28.13
2019-05-15T02:58:52.877Z,28.13
2019-05-15T02:59:52.886Z,28.13
2019-05-15T03:00:53.706Z,28.13
2019-05-15T03:01:52.922Z,28.13
2019-05-15T03:02:53.046Z,28.13
2019-05-15T03:03:52.967Z,28.13
2019-05-15T03:04:53.191Z,28.13
2019-05-15T03:05:53.002Z,28.13
2019-05-15T03:06:53.026Z,28.13
2019-05-15T03:07:53.048Z,33.75
2019-05-15T03:08:53.067Z,33.75
2019-05-15T03:09:53.104Z,33.75
2019-05-15T03:10:53.118Z,33.75
2019-05-15T03:11:53.135Z,33.75
2019-05-15T03:12:53.161Z,33.75
2019-05-15T03:13:53.176Z,33.75
2019-05-15T03:14:53.202Z,33.75
2019-05-15T03:15:53.220Z,39.38
2019-05-15T03:16:53.403Z,33.75
2019-05-15T03:17:53.349Z,33.75
2019-05-15T03:18:55.724Z,33.75
2019-05-15T03:19:53.315Z,39.38
2019-05-15T03:20:53.561Z,39.38
2019-05-15T03:21:53.389Z,39.38
2019-05-15T03:22:53.453Z,39.38
2019-05-15T03:23:53.405Z,39.38
2019-05-15T03:24:53.415Z,39.38
2019-05-15T03:25:53.447Z,33.75
2019-05-15T03:26:53.460Z,33.75
2019-05-15T03:27:53.485Z,33.75
2019-05-15T03:28:58.987Z,33.75
2019-05-15T03:29:53.524Z,33.75
2019-05-15T03:32:13.164Z,33.75
2019-05-15T03:33:02.325Z,33.75
2019-05-15T03:33:54.793Z,33.75
2019-05-15T03:34:56.503Z,33.75
2019-05-15T03:35:55.008Z,45.00
2019-05-15T03:36:53.785Z,39.38
2019-05-15T03:37:53.707Z,33.75
2019-05-15T03:38:53.721Z,33.75
2019-05-15T03:39:53.744Z,33.75
2019-05-15T03:40:53.766Z,33.75
2019-05-15T03:41:53.791Z,33.75
2019-05-15T03:42:53.820Z,33.75
2019-05-15T03:43:53.846Z,33.75
2019-05-15T03:44:53.856Z,33.75
2019-05-15T03:45:53.876Z,33.75
2019-05-15T03:46:53.913Z,39.38
2019-05-15T03:47:53.922Z,45.00
2019-05-15T03:48:53.943Z,39.38
2019-05-15T03:49:53.964Z,39.38
2019-05-15T03:50:53.992Z,39.38
2019-05-15T03:51:54.011Z,39.38
2019-05-15T03:52:54.033Z,39.38
2019-05-15T03:53:54.062Z,39.38
2019-05-15T03:54:54.080Z,39.38
2019-05-15T03:55:54.099Z,39.38
2019-05-15T03:56:54.122Z,39.38
2019-05-15T03:57:54.147Z,45.00
2019-05-15T03:58:54.181Z,50.63
2019-05-15T03:59:54.197Z,50.63
2019-05-15T04:00:54.207Z,45.00
2019-05-15T04:01:54.229Z,45.00
2019-05-15T04:02:55.157Z,39.38
2019-05-15T04:03:54.275Z,39.38
2019-05-15T04:04:57.196Z,33.75
2019-05-15T04:05:54.319Z,33.75
2019-05-15T04:06:54.347Z,28.13
2019-05-15T04:07:54.460Z,28.13
2019-05-15T04:08:54.418Z,28.13
2019-05-15T04:09:54.409Z,28.13
2019-05-15T04:10:54.434Z,28.13
2019-05-15T04:11:54.453Z,33.75
2019-05-15T04:12:54.476Z,28.13
2019-05-15T04:13:54.498Z,28.13
2019-05-15T04:14:54.661Z,33.75
2019-05-15T04:15:54.667Z,33.75
2019-05-15T04:16:54.565Z,33.75
2019-05-15T04:17:54.586Z,33.75
2019-05-15T04:18:54.616Z,33.75
2019-05-15T04:19:54.656Z,33.75
2019-05-15T04:20:54.674Z,28.13
2019-05-15T04:21:54.675Z,33.75
2019-05-15T04:22:54.698Z,33.75
2019-05-15T04:23:54.723Z,28.13
2019-05-15T04:24:54.747Z,28.13
2019-05-15T04:25:54.767Z,28.13
2019-05-15T04:26:54.791Z,33.75
2019-05-15T04:27:54.811Z,39.38
2019-05-15T04:28:54.847Z,39.38
2019-05-15T04:29:54.856Z,28.13
2019-05-15T04:30:54.880Z,28.13
2019-05-15T04:32:01.021Z,33.75
2019-05-15T04:32:54.925Z,33.75
2019-05-15T04:33:54.950Z,28.13
2019-05-15T04:34:54.970Z,28.13
2019-05-15T04:35:54.994Z,39.38
2019-05-15T04:36:55.018Z,39.38
2019-05-15T04:37:55.042Z,33.75
2019-05-15T04:38:55.057Z,28.13
2019-05-15T04:39:55.089Z,33.75
2019-05-15T04:40:55.103Z,33.75
2019-05-15T04:41:55.125Z,28.13
2019-05-15T04:42:55.154Z,28.13
2019-05-15T04:43:55.177Z,28.13
2019-05-15T04:44:55.201Z,28.13
2019-05-15T04:45:59.195Z,28.13
2019-05-15T04:46:55.267Z,28.13
2019-05-15T04:47:58.540Z,22.50
2019-05-15T04:48:55.283Z,28.13
2019-05-15T04:49:55.309Z,28.13
2019-05-15T04:50:55.333Z,33.75
2019-05-15T04:52:00.261Z,33.75
2019-05-15T04:52:59.029Z,33.75
2019-05-15T04:53:58.465Z,33.75
2019-05-15T04:54:55.430Z,33.75
2019-05-15T04:55:55.526Z,33.75
2019-05-15T04:56:55.472Z,28.13
2019-05-15T04:57:55.490Z,22.50
2019-05-15T04:58:55.676Z,28.13
2019-05-15T04:59:55.544Z,22.50
2019-05-15T05:00:55.555Z,33.75
2019-05-15T05:02:12.947Z,33.75
2019-05-15T05:02:58.760Z,28.13
2019-05-15T05:03:58.722Z,33.75
2019-05-15T05:04:58.610Z,33.75
2019-05-15T05:05:58.836Z,33.75
2019-05-15T05:06:58.527Z,33.75
2019-05-15T05:07:55.724Z,33.75
2019-05-15T05:08:55.739Z,33.75
2019-05-15T05:09:55.758Z,33.75
2019-05-15T05:10:58.838Z,33.75
2019-05-15T05:11:58.117Z,33.75
2019-05-15T05:12:55.828Z,33.75
2019-05-15T05:13:55.848Z,33.75
2019-05-15T05:14:58.613Z,33.75
2019-05-15T05:15:58.476Z,33.75
2019-05-15T05:16:55.918Z,22.50
2019-05-15T05:17:58.417Z,33.75
2019-05-15T05:18:55.971Z,39.38
2019-05-15T05:19:58.242Z,45.00
2019-05-15T05:20:57.749Z,39.38
2019-05-15T05:21:56.036Z,39.38
2019-05-15T05:22:58.249Z,39.38
2019-05-15T05:23:56.078Z,39.38
2019-05-15T05:24:58.368Z,39.38
2019-05-15T05:25:58.099Z,39.38
2019-05-15T05:26:58.109Z,45.00
2019-05-15T05:27:58.044Z,45.00
2019-05-15T05:29:01.092Z,45.00
2019-05-15T05:29:58.590Z,39.38
2019-05-15T05:30:58.576Z,33.75
2019-05-15T05:31:58.457Z,45.00
2019-05-15T05:32:57.989Z,33.75
2019-05-15T05:33:57.780Z,33.75
2019-05-15T05:34:58.810Z,28.13
2019-05-15T05:35:58.347Z,28.13
2019-05-15T05:36:58.885Z,45.00
2019-05-15T05:37:58.323Z,45.00
2019-05-15T05:38:58.403Z,45.00
2019-05-15T05:39:57.698Z,45.00
2019-05-15T05:40:58.643Z,28.13
2019-05-15T05:41:58.661Z,28.13
2019-05-15T05:42:56.516Z,28.13
2019-05-15T05:43:58.581Z,28.13
2019-05-15T05:44:58.221Z,28.13
2019-05-15T05:45:58.248Z,33.75
2019-05-15T05:46:58.218Z,39.38
2019-05-15T05:47:58.062Z,45.00
2019-05-15T05:48:58.320Z,39.38
2019-05-15T05:49:58.177Z,45.00
2019-05-15T05:50:58.380Z,56.25
2019-05-15T05:51:58.724Z,56.25
2019-05-15T05:52:57.946Z,50.63
2019-05-15T05:53:58.879Z,45.00
2019-05-15T05:54:58.136Z,39.38
2019-05-15T05:55:58.023Z,56.25
2019-05-15T05:56:58.608Z,39.38
2019-05-15T05:57:58.429Z,56.25
2019-05-15T05:58:58.582Z,39.38
2019-05-15T05:59:58.317Z,56.25
2019-05-15T06:00:58.623Z,61.88
2019-05-15T06:01:58.950Z,61.88
2019-05-15T06:02:59.119Z,61.88
2019-05-15T06:03:58.322Z,61.88
2019-05-15T06:04:58.240Z,61.88
2019-05-15T06:05:59.005Z,56.25
2019-05-15T06:07:06.983Z,50.63
2019-05-15T06:07:58.192Z,56.25
2019-05-15T06:08:58.399Z,39.38
2019-05-15T06:09:58.148Z,33.75
2019-05-15T06:10:58.475Z,39.38
2019-05-15T06:11:58.336Z,33.75
2019-05-15T06:12:58.697Z,56.25
2019-05-15T06:13:58.376Z,50.63
2019-05-15T06:14:58.093Z,50.63
2019-05-15T06:15:59.041Z,39.38
2019-05-15T06:16:58.866Z,56.25
2019-05-15T06:17:58.541Z,61.88
2019-05-15T06:18:58.662Z,39.38
2019-05-15T06:19:58.629Z,61.88
2019-05-15T06:20:58.623Z,45.00
2019-05-15T06:22:00.774Z,61.88
2019-05-15T06:22:58.026Z,45.00
2019-05-15T06:24:03.577Z,50.63
2019-05-15T06:24:57.992Z,56.25
2019-05-15T06:25:59.224Z,39.38
2019-05-15T06:26:58.680Z,39.38
2019-05-15T06:27:58.341Z,39.38
2019-05-15T06:28:58.409Z,33.75
2019-05-15T06:29:58.086Z,33.75
2019-05-15T06:31:00.635Z,28.13
2019-05-15T06:31:58.754Z,33.75
2019-05-15T06:33:05.663Z,33.75
2019-05-15T06:33:58.158Z,50.63
2019-05-15T06:34:57.897Z,33.75
2019-05-15T06:35:59.220Z,28.13
2019-05-15T06:36:58.892Z,28.13
2019-05-15T06:37:59.118Z,28.13
2019-05-15T06:38:59.026Z,28.13
2019-05-15T06:39:58.839Z,22.50
2019-05-15T06:40:58.359Z,22.50
2019-05-15T06:41:58.833Z,22.50
2019-05-15T06:42:59.323Z,22.50
2019-05-15T06:43:58.916Z,22.50
2019-05-15T06:44:58.948Z,28.13
2019-05-15T06:45:58.565Z,28.13
2019-05-15T06:46:58.753Z,33.75
2019-05-15T06:48:01.369Z,28.13
2019-05-15T06:48:58.257Z,28.13
2019-05-15T06:49:58.090Z,28.13
2019-05-15T06:50:58.118Z,28.13
2019-05-15T06:51:58.267Z,28.13
2019-05-15T06:52:58.732Z,28.13
2019-05-15T06:53:58.409Z,22.50
2019-05-15T06:54:59.275Z,22.50
2019-05-15T06:55:58.595Z,22.50
2019-05-15T06:56:58.524Z,22.50
2019-05-15T06:57:58.519Z,22.50
2019-05-15T06:58:58.358Z,22.50
2019-05-15T06:59:58.350Z,22.50
2019-05-15T07:00:59.283Z,22.50
2019-05-15T07:01:59.392Z,22.50
2019-05-15T07:02:58.496Z,33.75
2019-05-15T07:03:59.061Z,28.13
2019-05-15T07:04:58.537Z,28.13
2019-05-15T07:05:59.748Z,28.13
2019-05-15T07:06:58.561Z,33.75
2019-05-15T07:07:58.655Z,33.75
2019-05-15T07:08:58.826Z,33.75
2019-05-15T07:09:58.551Z,39.38
2019-05-15T07:10:58.585Z,45.00
2019-05-15T07:11:59.071Z,33.75
2019-05-15T07:12:58.649Z,33.75
2019-05-15T07:13:58.645Z,28.13
2019-05-15T07:14:58.679Z,28.13
2019-05-15T07:15:58.777Z,28.13
2019-05-15T07:16:59.173Z,28.13
2019-05-15T07:17:58.742Z,28.13
2019-05-15T07:18:59.049Z,28.13
2019-05-15T07:19:59.389Z,28.13
2019-05-15T07:20:58.841Z,22.50
2019-05-15T07:21:58.832Z,22.50
2019-05-15T07:22:58.856Z,22.50
2019-05-15T07:23:58.879Z,28.13
2019-05-15T07:24:58.917Z,28.13
2019-05-15T07:25:58.963Z,28.13
2019-05-15T07:26:59.290Z,28.13
2019-05-15T07:27:58.975Z,28.13
2019-05-15T07:28:59.610Z,28.13
2019-05-15T07:29:59.021Z,33.75
2019-05-15T07:30:59.048Z,33.75
2019-05-15T07:31:59.071Z,33.75
2019-05-15T07:32:59.091Z,33.75
2019-05-15T07:33:59.984Z,33.75
2019-05-15T07:34:59.141Z,33.75
2019-05-15T07:35:59.262Z,33.75
2019-05-15T07:36:59.365Z,33.75
2019-05-15T07:37:59.221Z,33.75
2019-05-15T07:38:59.271Z,33.75
2019-05-15T07:39:59.295Z,28.13
2019-05-15T07:41:03.429Z,28.13
2019-05-15T07:41:59.299Z,22.50
2019-05-15T07:42:59.328Z,28.13
2019-05-15T07:43:59.346Z,28.13
2019-05-15T07:44:59.369Z,28.13
2019-05-15T07:45:59.391Z,28.13
2019-05-15T07:46:59.416Z,33.75
2019-05-15T07:47:59.465Z,33.75
2019-05-15T07:48:59.468Z,39.38
2019-05-15T07:49:59.512Z,45.00
2019-05-15T07:50:59.620Z,56.25
2019-05-15T07:51:59.532Z,73.13
2019-05-15T07:52:59.572Z,50.63
2019-05-15T07:54:02.550Z,45.00
2019-05-15T07:54:59.601Z,50.63
2019-05-15T07:56:01.124Z,73.13
2019-05-15T07:56:59.661Z,118.13
2019-05-15T07:57:59.673Z,163.13
2019-05-15T07:58:59.764Z,163.13
2019-05-15T07:59:59.722Z,135.00
2019-05-15T08:00:59.742Z,45.00
2019-05-15T08:01:59.765Z,45.00
2019-05-15T08:02:59.793Z,39.38
2019-05-15T08:04:21.710Z,39.38
2019-05-15T08:04:59.834Z,39.38
2019-05-15T08:06:02.966Z,33.75
2019-05-15T08:06:59.882Z,33.75
2019-05-15T08:07:59.906Z,33.75
2019-05-15T08:08:59.938Z,33.75
2019-05-15T08:09:59.956Z,33.75
2019-05-15T08:11:14.834Z,33.75
2019-05-15T08:12:03.134Z,33.75
2019-05-15T08:13:00.024Z,33.75
2019-05-15T08:14:00.050Z,33.75
2019-05-15T08:15:00.071Z,33.75
2019-05-15T08:16:00.092Z,33.75
2019-05-15T08:17:00.116Z,33.75
2019-05-15T08:18:08.698Z,33.75
2019-05-15T08:19:00.165Z,33.75
2019-05-15T08:20:00.187Z,33.75
2019-05-15T08:21:00.208Z,33.75
2019-05-15T08:22:00.233Z,33.75
2019-05-15T08:23:00.258Z,33.75
2019-05-15T08:24:00.280Z,33.75
2019-05-15T08:25:00.303Z,33.75
2019-05-15T08:26:00.326Z,33.75
2019-05-15T08:27:00.348Z,33.75
2019-05-15T08:28:00.375Z,39.38
2019-05-15T08:29:00.402Z,39.38
2019-05-15T08:30:00.423Z,39.38
2019-05-15T08:31:00.443Z,39.38
2019-05-15T08:32:00.469Z,39.38
2019-05-15T08:33:00.510Z,39.38
2019-05-15T08:34:12.801Z,33.75
2019-05-15T08:35:00.537Z,33.75
2019-05-15T08:36:00.561Z,33.75
2019-05-15T08:37:00.586Z,33.75
2019-05-15T08:38:00.606Z,33.75
2019-05-15T08:39:00.631Z,33.75
2019-05-15T08:40:00.689Z,33.75
2019-05-15T08:41:00.729Z,33.75
2019-05-15T08:42:00.700Z,33.75
2019-05-15T08:43:02.121Z,28.13
2019-05-15T08:44:00.752Z,28.13
2019-05-15T08:45:00.770Z,33.75
2019-05-15T08:46:00.800Z,28.13
2019-05-15T08:47:00.818Z,28.13
2019-05-15T08:48:00.841Z,22.50
2019-05-15T08:49:00.868Z,28.13
2019-05-15T08:50:00.899Z,28.13
2019-05-15T08:51:00.913Z,33.75
2019-05-15T08:52:00.935Z,28.13
2019-05-15T08:53:00.962Z,28.13
2019-05-15T08:54:00.988Z,22.50
2019-05-15T08:55:01.018Z,22.50
2019-05-15T08:56:01.031Z,22.50
2019-05-15T08:57:01.056Z,28.13
2019-05-15T08:58:06.702Z,39.38
2019-05-15T08:59:01.106Z,33.75
2019-05-15T09:00:01.153Z,33.75
2019-05-15T09:01:01.183Z,28.13
2019-05-15T09:02:01.168Z,28.13
2019-05-15T09:03:01.207Z,39.38
2019-05-15T09:04:01.238Z,39.38
2019-05-15T09:05:01.258Z,33.75
2019-05-15T09:06:01.264Z,33.75
2019-05-15T09:07:01.462Z,33.75
2019-05-15T09:08:01.313Z,33.75
2019-05-15T09:09:01.365Z,33.75
2019-05-15T09:10:01.360Z,33.75
2019-05-15T09:11:01.378Z,28.13
2019-05-15T09:12:01.401Z,28.13
2019-05-15T09:13:01.423Z,28.13
2019-05-15T09:14:01.446Z,28.13
2019-05-15T09:15:01.477Z,22.50
2019-05-15T09:16:01.512Z,22.50
2019-05-15T09:17:01.519Z,22.50
2019-05-15T09:18:14.797Z,22.50
2019-05-15T09:19:01.583Z,22.50
2019-05-15T09:20:01.590Z,22.50
2019-05-15T09:21:01.700Z,16.88
2019-05-15T09:22:01.633Z,16.88
2019-05-15T09:23:01.683Z,16.88
2019-05-15T09:24:01.681Z,16.88
2019-05-15T09:25:01.721Z,16.88
2019-05-15T09:26:01.729Z,16.88
2019-05-15T09:27:01.770Z,16.88
2019-05-15T09:28:01.777Z,16.88
2019-05-15T09:29:01.883Z,16.88
2019-05-15T09:30:01.820Z,16.88
2019-05-15T09:31:01.849Z,16.88
2019-05-15T09:32:01.868Z,16.88
2019-05-15T09:33:01.977Z,16.88
2019-05-15T09:34:01.946Z,16.88
2019-05-15T09:35:01.939Z,16.88
2019-05-15T09:36:02.034Z,11.25
2019-05-15T09:37:02.010Z,11.25
2019-05-15T09:38:02.004Z,11.25
2019-05-15T09:39:02.042Z,11.25
2019-05-15T09:40:02.052Z,11.25
2019-05-15T09:41:02.076Z,11.25
2019-05-15T09:42:02.100Z,11.25
2019-05-15T09:43:02.119Z,11.25
2019-05-15T09:44:02.156Z,11.25
2019-05-15T09:45:02.188Z,16.88
2019-05-15T09:46:02.190Z,16.88
2019-05-15T09:47:02.214Z,16.88
2019-05-15T09:48:02.265Z,11.25
2019-05-15T09:49:02.260Z,11.25
2019-05-15T09:50:02.282Z,11.25
2019-05-15T09:51:02.309Z,11.25
2019-05-15T09:52:02.328Z,5.63
2019-05-15T09:53:02.367Z,5.63
2019-05-15T09:54:02.387Z,5.63
2019-05-15T09:55:02.501Z,5.63
2019-05-15T09:56:02.421Z,5.63
2019-05-15T09:57:02.444Z,5.63
2019-05-15T09:58:02.469Z,5.63
2019-05-15T09:59:02.490Z,5.63
2019-05-15T10:00:02.515Z,5.63
2019-05-15T10:01:02.542Z,5.63
2019-05-15T10:02:02.559Z,5.63
2019-05-15T10:03:02.595Z,5.63
2019-05-15T10:04:02.607Z,11.25
2019-05-15T10:05:06.667Z,22.50
2019-05-15T10:06:02.649Z,11.25
2019-05-15T10:07:02.715Z,11.25
2019-05-15T10:08:02.738Z,11.25
2019-05-15T10:09:02.725Z,5.63
2019-05-15T10:10:02.742Z,11.25
2019-05-15T10:11:02.766Z,11.25
2019-05-15T10:12:02.793Z,11.25
2019-05-15T10:13:02.810Z,5.63
2019-05-15T10:14:02.833Z,5.63
2019-05-15T10:15:02.861Z,5.63
2019-05-15T10:16:02.878Z,5.63
2019-05-15T10:17:02.908Z,5.63
2019-05-15T10:18:02.922Z,5.63
2019-05-15T10:19:02.946Z,5.63
2019-05-15T10:20:02.970Z,5.63
2019-05-15T10:21:03.003Z,5.63
2019-05-15T10:22:03.016Z,5.63
2019-05-15T10:23:03.058Z,5.63
2019-05-15T10:24:03.060Z,5.63
2019-05-15T10:25:03.083Z,5.63
2019-05-15T10:26:03.119Z,5.63
2019-05-15T10:27:03.133Z,5.63
2019-05-15T10:28:03.152Z,5.63
2019-05-15T10:29:03.175Z,0.00
2019-05-15T10:30:03.200Z,0.00
2019-05-15T10:31:03.230Z,0.00
2019-05-15T10:32:03.244Z,0.00
2019-05-15T10:33:03.267Z,0.00
2019-05-15T10:34:03.306Z,0.00
2019-05-15T10:35:03.324Z,0.00
2019-05-15T10:36:03.332Z,0.00
2019-05-15T10:37:03.358Z,0.00
2019-05-15T10:38:03.392Z,0.00
2019-05-15T10:39:03.440Z,0.00
2019-05-15T10:40:03.425Z,0.00
2019-05-15T10:41:09.385Z,5.63
2019-05-15T10:42:03.471Z,5.63
2019-05-15T10:43:03.495Z,5.63
2019-05-15T10:44:03.516Z,5.63
2019-05-15T10:45:03.542Z,5.63
2019-05-15T10:46:03.563Z,5.63
2019-05-15T10:47:03.583Z,5.63
2019-05-15T10:48:03.604Z,5.63
2019-05-15T10:49:03.645Z,5.63
2019-05-15T10:50:03.662Z,5.63
2019-05-15T10:51:07.182Z,5.63
2019-05-15T10:52:03.697Z,5.63
2019-05-15T10:53:03.822Z,5.63
2019-05-15T10:54:03.744Z,5.63
2019-05-15T10:55:03.766Z,5.63
2019-05-15T10:56:03.801Z,0.00
2019-05-15T10:57:05.375Z,0.00
2019-05-15T10:58:03.838Z,0.00
2019-05-15T10:59:03.859Z,0.00
2019-05-15T11:00:03.875Z,0.00
2019-05-15T11:01:04.211Z,0.00
2019-05-15T11:02:03.920Z,0.00
2019-05-15T11:03:03.950Z,0.00
2019-05-15T11:04:03.965Z,0.00
2019-05-15T11:05:04.001Z,0.00
2019-05-15T11:06:04.208Z,0.00
2019-05-15T11:07:04.369Z,0.00
2019-05-15T11:08:04.522Z,0.00
2019-05-15T11:09:18.814Z,0.00
2019-05-15T11:10:04.353Z,0.00
2019-05-15T11:11:04.139Z,0.00
2019-05-15T11:12:04.145Z,0.00
2019-05-15T11:13:04.169Z,0.00
2019-05-15T11:14:04.196Z,0.00
2019-05-15T11:15:04.213Z,0.00
2019-05-15T11:16:04.239Z,0.00
2019-05-15T11:17:04.257Z,0.00
2019-05-15T11:18:04.286Z,0.00
2019-05-15T11:19:04.321Z,0.00
2019-05-15T11:20:04.325Z,0.00
2019-05-15T11:21:04.352Z,0.00
2019-05-15T11:22:04.445Z,0.00
2019-05-15T11:23:04.422Z,0.00
2019-05-15T11:24:04.423Z,0.00
2019-05-15T11:25:04.446Z,0.00
2019-05-15T11:26:04.719Z,0.00
2019-05-15T11:27:13.550Z,0.00
2019-05-15T11:28:04.502Z,0.00
2019-05-15T11:29:04.529Z,0.00
2019-05-15T11:30:04.673Z,0.00
2019-05-15T11:31:05.572Z,0.00
2019-05-15T11:32:04.817Z,0.00
2019-05-15T11:33:04.710Z,0.00
2019-05-15T11:34:04.637Z,0.00
2019-05-15T11:35:04.825Z,0.00
2019-05-15T11:36:06.236Z,0.00
2019-05-15T11:37:04.709Z,0.00
2019-05-15T11:38:04.726Z,0.00
2019-05-15T11:39:04.748Z,0.00
2019-05-15T11:40:04.780Z,0.00
2019-05-15T11:41:04.889Z,0.00
2019-05-15T11:42:04.817Z,0.00
2019-05-15T11:43:04.836Z,0.00
2019-05-15T11:44:04.878Z,0.00
2019-05-15T11:45:04.882Z,0.00
2019-05-15T11:46:04.906Z,0.00
2019-05-15T11:47:04.926Z,0.00
2019-05-15T11:48:04.948Z,0.00
2019-05-15T11:49:04.973Z,0.00
2019-05-15T11:50:04.992Z,0.00
2019-05-15T11:51:05.124Z,0.00
2019-05-15T11:52:05.227Z,0.00
2019-05-15T11:53:05.181Z,0.00
2019-05-15T11:54:05.085Z,0.00
2019-05-15T11:55:05.105Z,0.00
2019-05-15T11:56:05.125Z,0.00
2019-05-15T11:57:05.149Z,0.00
2019-05-15T11:58:05.170Z,0.00
2019-05-15T11:59:05.193Z,0.00
2019-05-15T12:00:05.484Z,0.00
2019-05-15T12:01:05.236Z,0.00
2019-05-15T12:02:05.372Z,0.00
2019-05-15T12:03:05.281Z,0.00
2019-05-15T12:04:05.307Z,0.00
2019-05-15T12:05:05.325Z,0.00
2019-05-15T12:06:15.973Z,0.00
2019-05-15T12:07:05.369Z,0.00
2019-05-15T12:08:05.390Z,0.00
2019-05-15T12:09:05.418Z,0.00
2019-05-15T12:10:05.435Z,0.00
2019-05-15T12:11:05.468Z,0.00
2019-05-15T12:12:05.484Z,0.00
2019-05-15T12:13:05.503Z,0.00
2019-05-15T12:14:05.536Z,0.00
2019-05-15T12:15:05.549Z,0.00
2019-05-15T12:16:05.579Z,0.00
2019-05-15T12:17:12.427Z,0.00
2019-05-15T12:18:05.610Z,0.00
2019-05-15T12:19:09.512Z,0.00
2019-05-15T12:20:07.099Z,0.00
2019-05-15T12:21:05.677Z,0.00
2019-05-15T12:22:05.699Z,0.00
2019-05-15T12:23:08.691Z,0.00
2019-05-15T12:24:08.522Z,0.00
2019-05-15T12:25:09.306Z,0.00
2019-05-15T12:26:08.803Z,0.00
2019-05-15T12:27:15.359Z,0.00
2019-05-15T12:28:09.109Z,0.00
2019-05-15T12:29:05.858Z,0.00
2019-05-15T12:30:09.786Z,0.00
2019-05-15T12:31:05.906Z,0.00
2019-05-15T12:32:25.390Z,0.00
2019-05-15T12:33:05.979Z,0.00
2019-05-15T12:34:05.963Z,0.00
2019-05-15T12:35:05.985Z,0.00
2019-05-15T12:36:06.007Z,0.00
2019-05-15T12:37:09.466Z,0.00
2019-05-15T12:38:08.878Z,0.00
2019-05-15T12:39:10.583Z,0.00
2019-05-15T13:00:07.629Z,0.00
2019-05-15T13:01:14.587Z,0.00
2019-05-15T13:02:08.253Z,0.00
2019-05-15T13:03:08.898Z,0.00
2019-05-15T13:04:08.266Z,0.00
2019-05-15T13:05:08.549Z,0.00
2019-05-15T13:06:08.065Z,0.00
2019-05-15T13:07:14.022Z,0.00
2019-05-15T13:08:08.372Z,0.00
2019-05-15T13:09:08.614Z,0.00
2019-05-15T13:10:08.728Z,0.00
2019-05-15T13:11:10.210Z,0.00
2019-05-15T13:12:08.527Z,0.00
2019-05-15T13:13:09.681Z,0.00
2019-05-15T13:14:08.123Z,0.00
2019-05-15T13:15:08.276Z,0.00
2019-05-15T13:16:06.889Z,0.00
2019-05-15T13:17:06.897Z,0.00
2019-05-15T13:18:12.786Z,0.00
2019-05-15T13:19:06.949Z,0.00
2019-05-15T13:20:06.961Z,0.00